sensor_id;sensor_type;location;lat;lon;timestamp;temperature;humidity
74617;DHT22;63123;50.906;4.198;2023-04-15T00:00:14;16.80;51.50
74617;DHT22;63123;50.906;4.198;2023-04-15T00:02:40;16.80;51.50
74617;DHT22;63123;50.906;4.198;2023-04-15T00:05:06;16.80;51.50
74617;DHT22;63123;50.906;4.198;2023-04-15T00:07:32;16.80;51.60
74617;DHT22;63123;50.906;4.198;2023-04-15T00:09:58;16.80;51.50
74617;DHT22;63123;50.906;4.198;2023-04-15T00:12:26;16.80;51.50
74617;DHT22;63123;50.906;4.198;2023-04-15T00:14:52;16.80;51.50
74617;DHT22;63123;50.906;4.198;2023-04-15T00:17:19;16.80;51.40
74617;DHT22;63123;50.906;4.198;2023-04-15T00:19:44;16.80;51.40
74617;DHT22;63123;50.906;4.198;2023-04-15T00:22:11;16.80;51.60
74617;DHT22;63123;50.906;4.198;2023-04-15T00:24:37;16.80;51.50
74617;DHT22;63123;50.906;4.198;2023-04-15T00:27:03;16.80;51.50
74617;DHT22;63123;50.906;4.198;2023-04-15T00:29:29;16.80;51.50
74617;DHT22;63123;50.906;4.198;2023-04-15T00:31:55;16.80;51.60
74617;DHT22;63123;50.906;4.198;2023-04-15T00:34:21;16.80;51.50
74617;DHT22;63123;50.906;4.198;2023-04-15T00:36:47;16.80;51.60
74617;DHT22;63123;50.906;4.198;2023-04-15T00:39:13;16.80;51.60
74617;DHT22;63123;50.906;4.198;2023-04-15T00:41:40;16.80;51.60
74617;DHT22;63123;50.906;4.198;2023-04-15T00:44:06;16.80;51.60
74617;DHT22;63123;50.906;4.198;2023-04-15T00:46:34;16.80;51.70
74617;DHT22;63123;50.906;4.198;2023-04-15T00:49:02;16.80;51.70
74617;DHT22;63123;50.906;4.198;2023-04-15T00:51:28;16.80;51.70
74617;DHT22;63123;50.906;4.198;2023-04-15T00:53:55;16.80;51.70
74617;DHT22;63123;50.906;4.198;2023-04-15T00:56:21;16.80;51.70
74617;DHT22;63123;50.906;4.198;2023-04-15T00:58:50;16.80;51.70
74617;DHT22;63123;50.906;4.198;2023-04-15T01:01:17;16.80;51.70
74617;DHT22;63123;50.906;4.198;2023-04-15T01:03:46;16.80;51.80
74617;DHT22;63123;50.906;4.198;2023-04-15T01:06:12;16.80;51.80
74617;DHT22;63123;50.906;4.198;2023-04-15T01:08:38;16.80;51.80
74617;DHT22;63123;50.906;4.198;2023-04-15T01:11:04;16.80;51.80
74617;DHT22;63123;50.906;4.198;2023-04-15T01:13:30;16.80;51.80
74617;DHT22;63123;50.906;4.198;2023-04-15T01:15:58;16.80;51.80
74617;DHT22;63123;50.906;4.198;2023-04-15T01:18:23;16.80;51.80
74617;DHT22;63123;50.906;4.198;2023-04-15T01:20:49;16.80;51.90
74617;DHT22;63123;50.906;4.198;2023-04-15T01:23:15;16.80;51.90
74617;DHT22;63123;50.906;4.198;2023-04-15T01:25:42;16.80;51.80
74617;DHT22;63123;50.906;4.198;2023-04-15T01:28:09;16.80;51.90
74617;DHT22;63123;50.906;4.198;2023-04-15T01:30:35;16.80;51.90
74617;DHT22;63123;50.906;4.198;2023-04-15T01:33:01;16.80;51.90
74617;DHT22;63123;50.906;4.198;2023-04-15T01:35:27;16.80;51.90
74617;DHT22;63123;50.906;4.198;2023-04-15T01:37:53;16.80;52.00
74617;DHT22;63123;50.906;4.198;2023-04-15T01:40:19;16.80;52.00
74617;DHT22;63123;50.906;4.198;2023-04-15T01:42:45;16.80;52.00
74617;DHT22;63123;50.906;4.198;2023-04-15T01:45:11;16.80;52.10
74617;DHT22;63123;50.906;4.198;2023-04-15T01:47:38;16.80;52.00
74617;DHT22;63123;50.906;4.198;2023-04-15T01:50:04;16.80;52.10
74617;DHT22;63123;50.906;4.198;2023-04-15T01:52:31;16.80;52.00
74617;DHT22;63123;50.906;4.198;2023-04-15T01:54:56;16.80;52.00
74617;DHT22;63123;50.906;4.198;2023-04-15T01:57:22;16.80;52.00
74617;DHT22;63123;50.906;4.198;2023-04-15T01:59:48;16.80;52.10
74617;DHT22;63123;50.906;4.198;2023-04-15T02:02:13;16.80;52.00
74617;DHT22;63123;50.906;4.198;2023-04-15T02:04:39;16.80;52.10
74617;DHT22;63123;50.906;4.198;2023-04-15T02:07:05;16.80;52.10
74617;DHT22;63123;50.906;4.198;2023-04-15T02:09:31;16.80;52.10
74617;DHT22;63123;50.906;4.198;2023-04-15T02:11:57;16.80;52.10
74617;DHT22;63123;50.906;4.198;2023-04-15T02:14:22;16.80;52.20
74617;DHT22;63123;50.906;4.198;2023-04-15T02:16:48;16.80;52.10
74617;DHT22;63123;50.906;4.198;2023-04-15T02:19:13;16.80;52.10
74617;DHT22;63123;50.906;4.198;2023-04-15T02:21:39;16.80;52.10
74617;DHT22;63123;50.906;4.198;2023-04-15T02:24:06;16.80;52.10
74617;DHT22;63123;50.906;4.198;2023-04-15T02:26:31;16.80;52.10
74617;DHT22;63123;50.906;4.198;2023-04-15T02:28:58;16.80;52.20
74617;DHT22;63123;50.906;4.198;2023-04-15T02:31:24;16.80;52.10
74617;DHT22;63123;50.906;4.198;2023-04-15T02:33:50;16.80;52.20
74617;DHT22;63123;50.906;4.198;2023-04-15T02:36:16;16.80;52.20
74617;DHT22;63123;50.906;4.198;2023-04-15T02:38:41;16.80;52.20
74617;DHT22;63123;50.906;4.198;2023-04-15T02:41:10;16.80;52.10
74617;DHT22;63123;50.906;4.198;2023-04-15T02:43:36;16.80;52.20
74617;DHT22;63123;50.906;4.198;2023-04-15T02:46:02;16.80;52.20
74617;DHT22;63123;50.906;4.198;2023-04-15T02:48:28;16.80;52.20
74617;DHT22;63123;50.906;4.198;2023-04-15T02:51:13;16.80;52.20
74617;DHT22;63123;50.906;4.198;2023-04-15T02:53:38;16.80;52.20
74617;DHT22;63123;50.906;4.198;2023-04-15T02:56:04;16.80;52.20
74617;DHT22;63123;50.906;4.198;2023-04-15T02:58:30;16.80;52.20
74617;DHT22;63123;50.906;4.198;2023-04-15T03:00:56;16.80;52.20
74617;DHT22;63123;50.906;4.198;2023-04-15T03:03:21;16.80;52.20
74617;DHT22;63123;50.906;4.198;2023-04-15T03:05:47;16.80;52.30
74617;DHT22;63123;50.906;4.198;2023-04-15T03:08:13;16.80;52.30
74617;DHT22;63123;50.906;4.198;2023-04-15T03:10:39;16.80;52.30
74617;DHT22;63123;50.906;4.198;2023-04-15T03:13:04;16.80;52.30
74617;DHT22;63123;50.906;4.198;2023-04-15T03:15:31;16.80;52.40
74617;DHT22;63123;50.906;4.198;2023-04-15T03:17:57;16.80;52.30
74617;DHT22;63123;50.906;4.198;2023-04-15T03:20:22;16.80;52.30
74617;DHT22;63123;50.906;4.198;2023-04-15T03:22:48;16.70;52.30
74617;DHT22;63123;50.906;4.198;2023-04-15T03:25:14;16.80;52.40
74617;DHT22;63123;50.906;4.198;2023-04-15T03:27:40;16.80;52.30
74617;DHT22;63123;50.906;4.198;2023-04-15T03:30:06;16.80;52.40
74617;DHT22;63123;50.906;4.198;2023-04-15T03:32:33;16.80;52.50
74617;DHT22;63123;50.906;4.198;2023-04-15T03:34:58;16.80;52.40
74617;DHT22;63123;50.906;4.198;2023-04-15T03:37:24;16.80;52.40
74617;DHT22;63123;50.906;4.198;2023-04-15T03:39:49;16.80;52.40
74617;DHT22;63123;50.906;4.198;2023-04-15T03:42:15;16.80;52.40
74617;DHT22;63123;50.906;4.198;2023-04-15T03:44:41;16.80;52.50
74617;DHT22;63123;50.906;4.198;2023-04-15T03:47:07;16.70;52.40
74617;DHT22;63123;50.906;4.198;2023-04-15T03:49:32;16.80;52.50
74617;DHT22;63123;50.906;4.198;2023-04-15T03:51:58;16.80;52.50
74617;DHT22;63123;50.906;4.198;2023-04-15T03:54:24;16.80;52.60
74617;DHT22;63123;50.906;4.198;2023-04-15T03:56:49;16.80;52.60
74617;DHT22;63123;50.906;4.198;2023-04-15T03:59:15;16.80;52.60
74617;DHT22;63123;50.906;4.198;2023-04-15T04:01:41;16.80;53.20
74617;DHT22;63123;50.906;4.198;2023-04-15T04:04:06;16.80;52.60
74617;DHT22;63123;50.906;4.198;2023-04-15T04:06:32;16.80;52.60
74617;DHT22;63123;50.906;4.198;2023-04-15T04:08:58;16.80;52.60
74617;DHT22;63123;50.906;4.198;2023-04-15T04:11:23;16.80;52.70
74617;DHT22;63123;50.906;4.198;2023-04-15T04:13:49;16.80;52.60
74617;DHT22;63123;50.906;4.198;2023-04-15T04:16:15;16.80;52.60
74617;DHT22;63123;50.906;4.198;2023-04-15T04:18:41;16.70;52.60
74617;DHT22;63123;50.906;4.198;2023-04-15T04:21:06;16.80;52.70
74617;DHT22;63123;50.906;4.198;2023-04-15T04:23:32;16.80;52.70
74617;DHT22;63123;50.906;4.198;2023-04-15T04:25:58;16.80;52.80
74617;DHT22;63123;50.906;4.198;2023-04-15T04:28:23;16.80;53.30
74617;DHT22;63123;50.906;4.198;2023-04-15T04:30:49;16.80;52.80
74617;DHT22;63123;50.906;4.198;2023-04-15T04:33:15;16.80;52.80
74617;DHT22;63123;50.906;4.198;2023-04-15T04:35:40;16.80;52.80
74617;DHT22;63123;50.906;4.198;2023-04-15T04:38:06;16.80;52.80
74617;DHT22;63123;50.906;4.198;2023-04-15T04:40:31;16.80;52.90
74617;DHT22;63123;50.906;4.198;2023-04-15T04:42:57;16.80;52.90
74617;DHT22;63123;50.906;4.198;2023-04-15T04:45:23;16.80;52.90
74617;DHT22;63123;50.906;4.198;2023-04-15T04:47:48;16.80;52.90
74617;DHT22;63123;50.906;4.198;2023-04-15T04:50:14;16.80;52.90
74617;DHT22;63123;50.906;4.198;2023-04-15T04:52:40;16.80;52.90
74617;DHT22;63123;50.906;4.198;2023-04-15T04:55:06;16.80;52.90
74617;DHT22;63123;50.906;4.198;2023-04-15T04:57:33;16.80;52.90
74617;DHT22;63123;50.906;4.198;2023-04-15T05:00:00;16.80;52.90
74617;DHT22;63123;50.906;4.198;2023-04-15T05:02:26;16.80;52.90
74617;DHT22;63123;50.906;4.198;2023-04-15T05:04:52;16.80;52.90
74617;DHT22;63123;50.906;4.198;2023-04-15T05:07:19;16.80;52.90
74617;DHT22;63123;50.906;4.198;2023-04-15T05:09:45;16.80;52.90
74617;DHT22;63123;50.906;4.198;2023-04-15T05:12:11;16.80;52.90
74617;DHT22;63123;50.906;4.198;2023-04-15T05:14:40;16.80;52.90
74617;DHT22;63123;50.906;4.198;2023-04-15T05:17:07;16.80;52.90
74617;DHT22;63123;50.906;4.198;2023-04-15T05:19:33;16.80;52.90
74617;DHT22;63123;50.906;4.198;2023-04-15T05:21:58;16.80;52.90
74617;DHT22;63123;50.906;4.198;2023-04-15T05:24:24;16.80;52.90
74617;DHT22;63123;50.906;4.198;2023-04-15T05:26:50;16.80;52.90
74617;DHT22;63123;50.906;4.198;2023-04-15T05:29:16;16.80;52.90
74617;DHT22;63123;50.906;4.198;2023-04-15T05:31:42;16.80;52.90
74617;DHT22;63123;50.906;4.198;2023-04-15T05:34:08;16.80;52.90
74617;DHT22;63123;50.906;4.198;2023-04-15T05:36:33;16.80;52.90
74617;DHT22;63123;50.906;4.198;2023-04-15T05:38:59;16.80;52.90
74617;DHT22;63123;50.906;4.198;2023-04-15T05:41:25;16.80;52.90
74617;DHT22;63123;50.906;4.198;2023-04-15T05:43:50;16.80;52.90
74617;DHT22;63123;50.906;4.198;2023-04-15T05:46:16;16.80;52.90
74617;DHT22;63123;50.906;4.198;2023-04-15T05:48:41;16.80;52.90
74617;DHT22;63123;50.906;4.198;2023-04-15T05:51:07;16.80;52.90
74617;DHT22;63123;50.906;4.198;2023-04-15T05:53:33;16.80;53.00
74617;DHT22;63123;50.906;4.198;2023-04-15T05:55:59;16.80;53.00
74617;DHT22;63123;50.906;4.198;2023-04-15T05:58:24;16.80;53.00
74617;DHT22;63123;50.906;4.198;2023-04-15T06:00:51;16.80;53.00
74617;DHT22;63123;50.906;4.198;2023-04-15T06:03:17;16.80;53.00
74617;DHT22;63123;50.906;4.198;2023-04-15T06:05:42;16.80;53.00
74617;DHT22;63123;50.906;4.198;2023-04-15T06:08:09;16.80;53.00
74617;DHT22;63123;50.906;4.198;2023-04-15T06:10:35;16.80;53.00
74617;DHT22;63123;50.906;4.198;2023-04-15T06:13:04;16.80;53.10
74617;DHT22;63123;50.906;4.198;2023-04-15T06:15:30;16.80;53.10
74617;DHT22;63123;50.906;4.198;2023-04-15T06:17:56;16.80;53.10
74617;DHT22;63123;50.906;4.198;2023-04-15T06:20:22;16.80;53.10
74617;DHT22;63123;50.906;4.198;2023-04-15T06:22:48;16.80;53.10
74617;DHT22;63123;50.906;4.198;2023-04-15T06:25:13;16.80;53.10
74617;DHT22;63123;50.906;4.198;2023-04-15T06:27:39;16.80;53.20
74617;DHT22;63123;50.906;4.198;2023-04-15T06:30:05;16.80;53.20
74617;DHT22;63123;50.906;4.198;2023-04-15T06:32:32;16.80;53.10
74617;DHT22;63123;50.906;4.198;2023-04-15T06:34:57;16.80;53.10
74617;DHT22;63123;50.906;4.198;2023-04-15T06:37:23;16.80;53.20
74617;DHT22;63123;50.906;4.198;2023-04-15T06:39:48;16.80;53.20
74617;DHT22;63123;50.906;4.198;2023-04-15T06:42:14;16.80;53.20
74617;DHT22;63123;50.906;4.198;2023-04-15T06:44:41;16.80;53.20
74617;DHT22;63123;50.906;4.198;2023-04-15T06:47:06;16.80;53.20
74617;DHT22;63123;50.906;4.198;2023-04-15T06:49:33;16.80;53.20
74617;DHT22;63123;50.906;4.198;2023-04-15T06:51:59;16.80;53.80
74617;DHT22;63123;50.906;4.198;2023-04-15T06:54:25;16.80;53.20
74617;DHT22;63123;50.906;4.198;2023-04-15T06:56:51;16.80;53.30
74617;DHT22;63123;50.906;4.198;2023-04-15T06:59:17;16.80;53.30
74617;DHT22;63123;50.906;4.198;2023-04-15T07:01:43;16.80;53.30
74617;DHT22;63123;50.906;4.198;2023-04-15T07:04:09;16.80;53.20
74617;DHT22;63123;50.906;4.198;2023-04-15T07:06:35;16.80;53.20
74617;DHT22;63123;50.906;4.198;2023-04-15T07:09:01;16.80;53.30
74617;DHT22;63123;50.906;4.198;2023-04-15T07:11:29;16.80;53.30
74617;DHT22;63123;50.906;4.198;2023-04-15T07:13:56;16.80;53.30
74617;DHT22;63123;50.906;4.198;2023-04-15T07:16:21;16.80;53.20
74617;DHT22;63123;50.906;4.198;2023-04-15T07:18:47;16.80;53.20
74617;DHT22;63123;50.906;4.198;2023-04-15T07:21:13;16.80;53.20
74617;DHT22;63123;50.906;4.198;2023-04-15T07:23:38;16.80;53.20
74617;DHT22;63123;50.906;4.198;2023-04-15T07:26:04;16.80;53.20
74617;DHT22;63123;50.906;4.198;2023-04-15T07:28:30;16.80;53.20
74617;DHT22;63123;50.906;4.198;2023-04-15T07:30:56;16.80;53.10
74617;DHT22;63123;50.906;4.198;2023-04-15T07:33:22;16.80;53.10
74617;DHT22;63123;50.906;4.198;2023-04-15T07:35:47;16.80;53.10
74617;DHT22;63123;50.906;4.198;2023-04-15T07:38:13;16.80;53.00
74617;DHT22;63123;50.906;4.198;2023-04-15T07:40:39;16.80;53.00
74617;DHT22;63123;50.906;4.198;2023-04-15T07:43:05;16.80;53.00
74617;DHT22;63123;50.906;4.198;2023-04-15T07:45:31;16.80;52.90
74617;DHT22;63123;50.906;4.198;2023-04-15T07:47:56;16.80;53.00
74617;DHT22;63123;50.906;4.198;2023-04-15T07:50:22;16.80;52.90
74617;DHT22;63123;50.906;4.198;2023-04-15T07:52:50;16.80;52.90
74617;DHT22;63123;50.906;4.198;2023-04-15T07:55:16;16.80;53.50
74617;DHT22;63123;50.906;4.198;2023-04-15T07:57:44;16.80;52.90
74617;DHT22;63123;50.906;4.198;2023-04-15T08:00:10;16.80;52.90
74617;DHT22;63123;50.906;4.198;2023-04-15T08:02:36;16.80;52.90
74617;DHT22;63123;50.906;4.198;2023-04-15T08:05:02;16.80;52.90
74617;DHT22;63123;50.906;4.198;2023-04-15T08:07:28;16.80;52.70
74617;DHT22;63123;50.906;4.198;2023-04-15T08:09:54;16.80;52.70
74617;DHT22;63123;50.906;4.198;2023-04-15T08:12:20;16.80;52.70
74617;DHT22;63123;50.906;4.198;2023-04-15T08:14:46;16.90;52.80
74617;DHT22;63123;50.906;4.198;2023-04-15T08:17:12;16.80;52.80
74617;DHT22;63123;50.906;4.198;2023-04-15T08:19:37;16.80;52.80
74617;DHT22;63123;50.906;4.198;2023-04-15T08:22:03;16.80;52.60
74617;DHT22;63123;50.906;4.198;2023-04-15T08:24:30;16.90;52.70
74617;DHT22;63123;50.906;4.198;2023-04-15T08:26:56;16.80;52.60
74617;DHT22;63123;50.906;4.198;2023-04-15T08:29:22;16.80;52.60
74617;DHT22;63123;50.906;4.198;2023-04-15T08:31:47;16.80;52.40
74617;DHT22;63123;50.906;4.198;2023-04-15T08:34:14;16.80;52.40
74617;DHT22;63123;50.906;4.198;2023-04-15T08:36:40;16.90;52.50
74617;DHT22;63123;50.906;4.198;2023-04-15T08:39:06;16.80;52.20
74617;DHT22;63123;50.906;4.198;2023-04-15T08:41:41;16.80;52.30
74617;DHT22;63123;50.906;4.198;2023-04-15T08:44:10;16.90;52.30
74617;DHT22;63123;50.906;4.198;2023-04-15T08:46:35;16.80;52.40
74617;DHT22;63123;50.906;4.198;2023-04-15T08:49:03;16.80;52.20
74617;DHT22;63123;50.906;4.198;2023-04-15T08:51:30;16.80;52.20
74617;DHT22;63123;50.906;4.198;2023-04-15T08:53:56;16.90;52.20
74617;DHT22;63123;50.906;4.198;2023-04-15T08:56:24;16.90;52.30
74617;DHT22;63123;50.906;4.198;2023-04-15T08:58:53;16.80;52.30
74617;DHT22;63123;50.906;4.198;2023-04-15T09:01:19;16.80;52.20
74617;DHT22;63123;50.906;4.198;2023-04-15T09:03:47;16.80;52.10
74617;DHT22;63123;50.906;4.198;2023-04-15T09:06:16;16.80;52.10
74617;DHT22;63123;50.906;4.198;2023-04-15T09:08:42;16.90;52.20
74617;DHT22;63123;50.906;4.198;2023-04-15T09:11:07;16.90;52.10
74617;DHT22;63123;50.906;4.198;2023-04-15T09:13:33;16.90;52.10
74617;DHT22;63123;50.906;4.198;2023-04-15T09:16:01;16.90;52.30
74617;DHT22;63123;50.906;4.198;2023-04-15T09:18:30;16.80;52.20
74617;DHT22;63123;50.906;4.198;2023-04-15T09:21:10;16.90;52.40
74617;DHT22;63123;50.906;4.198;2023-04-15T09:23:39;16.90;52.20
74617;DHT22;63123;50.906;4.198;2023-04-15T09:26:06;16.90;52.80
74617;DHT22;63123;50.906;4.198;2023-04-15T09:28:32;16.90;52.20
74617;DHT22;63123;50.906;4.198;2023-04-15T09:31:01;16.90;52.10
74617;DHT22;63123;50.906;4.198;2023-04-15T09:33:28;16.90;52.20
74617;DHT22;63123;50.906;4.198;2023-04-15T09:36:04;16.90;52.20
74617;DHT22;63123;50.906;4.198;2023-04-15T09:38:30;16.90;52.10
74617;DHT22;63123;50.906;4.198;2023-04-15T09:40:57;16.90;52.00
74617;DHT22;63123;50.906;4.198;2023-04-15T09:43:36;16.80;52.60
74617;DHT22;63123;50.906;4.198;2023-04-15T09:46:04;16.90;51.90
74617;DHT22;63123;50.906;4.198;2023-04-15T09:48:30;16.90;51.90
74617;DHT22;63123;50.906;4.198;2023-04-15T09:50:59;16.90;52.00
74617;DHT22;63123;50.906;4.198;2023-04-15T09:53:26;16.90;51.80
74617;DHT22;63123;50.906;4.198;2023-04-15T09:55:57;16.90;51.40
74617;DHT22;63123;50.906;4.198;2023-04-15T09:58:24;16.90;51.80
74617;DHT22;63123;50.906;4.198;2023-04-15T10:00:52;16.90;51.90
74617;DHT22;63123;50.906;4.198;2023-04-15T10:03:26;17.00;51.60
74617;DHT22;63123;50.906;4.198;2023-04-15T10:05:53;17.00;51.60
74617;DHT22;63123;50.906;4.198;2023-04-15T10:08:22;17.00;51.90
74617;DHT22;63123;50.906;4.198;2023-04-15T10:10:49;17.00;51.60
74617;DHT22;63123;50.906;4.198;2023-04-15T10:13:18;17.00;51.50
74617;DHT22;63123;50.906;4.198;2023-04-15T10:15:47;17.00;51.70
74617;DHT22;63123;50.906;4.198;2023-04-15T10:18:15;17.00;51.50
74617;DHT22;63123;50.906;4.198;2023-04-15T10:20:45;17.00;51.40
74617;DHT22;63123;50.906;4.198;2023-04-15T10:23:11;17.00;51.50
74617;DHT22;63123;50.906;4.198;2023-04-15T10:25:38;17.10;51.40
74617;DHT22;63123;50.906;4.198;2023-04-15T10:28:05;17.10;50.90
74617;DHT22;63123;50.906;4.198;2023-04-15T10:30:32;17.10;51.00
74617;DHT22;63123;50.906;4.198;2023-04-15T10:32:59;17.10;50.90
74617;DHT22;63123;50.906;4.198;2023-04-15T10:35:26;17.10;50.60
74617;DHT22;63123;50.906;4.198;2023-04-15T10:37:52;17.10;50.40
74617;DHT22;63123;50.906;4.198;2023-04-15T10:40:26;17.10;50.40
74617;DHT22;63123;50.906;4.198;2023-04-15T10:42:56;17.10;50.60
74617;DHT22;63123;50.906;4.198;2023-04-15T10:45:25;17.10;50.60
74617;DHT22;63123;50.906;4.198;2023-04-15T10:47:55;17.10;50.50
74617;DHT22;63123;50.906;4.198;2023-04-15T10:50:21;17.10;50.60
74617;DHT22;63123;50.906;4.198;2023-04-15T10:52:50;17.10;50.40
74617;DHT22;63123;50.906;4.198;2023-04-15T10:55:25;17.10;50.60
74617;DHT22;63123;50.906;4.198;2023-04-15T10:57:53;17.10;50.60
74617;DHT22;63123;50.906;4.198;2023-04-15T11:00:20;17.10;50.40
74617;DHT22;63123;50.906;4.198;2023-04-15T11:03:05;17.10;50.80
74617;DHT22;63123;50.906;4.198;2023-04-15T11:08:06;17.00;50.10
74617;DHT22;63123;50.906;4.198;2023-04-15T11:12:59;17.00;50.20
74617;DHT22;63123;50.906;4.198;2023-04-15T11:15:35;17.00;50.30
74617;DHT22;63123;50.906;4.198;2023-04-15T11:18:10;17.00;50.50
74617;DHT22;63123;50.906;4.198;2023-04-15T11:20:37;17.00;50.40
74617;DHT22;63123;50.906;4.198;2023-04-15T11:23:03;16.90;49.90
74617;DHT22;63123;50.906;4.198;2023-04-15T11:25:31;17.00;49.90
74617;DHT22;63123;50.906;4.198;2023-04-15T11:27:58;17.00;50.10
74617;DHT22;63123;50.906;4.198;2023-04-15T11:30:26;17.00;49.70
74617;DHT22;63123;50.906;4.198;2023-04-15T11:32:59;17.00;49.70
74617;DHT22;63123;50.906;4.198;2023-04-15T11:35:25;17.00;50.00
74617;DHT22;63123;50.906;4.198;2023-04-15T11:37:51;16.90;49.70
74617;DHT22;63123;50.906;4.198;2023-04-15T11:40:26;17.00;49.70
74617;DHT22;63123;50.906;4.198;2023-04-15T11:43:06;17.00;50.00
74617;DHT22;63123;50.906;4.198;2023-04-15T11:45:32;16.90;49.50
74617;DHT22;63123;50.906;4.198;2023-04-15T11:48:08;17.00;49.90
74617;DHT22;63123;50.906;4.198;2023-04-15T11:50:35;16.90;49.90
74617;DHT22;63123;50.906;4.198;2023-04-15T11:53:04;16.90;50.20
74617;DHT22;63123;50.906;4.198;2023-04-15T11:55:30;17.00;50.90
74617;DHT22;63123;50.906;4.198;2023-04-15T11:58:08;17.00;49.90
74617;DHT22;63123;50.906;4.198;2023-04-15T12:00:34;16.90;49.50
74617;DHT22;63123;50.906;4.198;2023-04-15T12:06:20;17.00;49.60
74617;DHT22;63123;50.906;4.198;2023-04-15T12:11:50;17.00;49.00
74617;DHT22;63123;50.906;4.198;2023-04-15T12:16:48;17.00;48.90
74617;DHT22;63123;50.906;4.198;2023-04-15T12:19:17;17.00;49.40
74617;DHT22;63123;50.906;4.198;2023-04-15T12:21:44;17.00;49.40
74617;DHT22;63123;50.906;4.198;2023-04-15T12:24:11;17.00;49.50
74617;DHT22;63123;50.906;4.198;2023-04-15T12:26:53;16.90;49.20
74617;DHT22;63123;50.906;4.198;2023-04-15T12:29:23;17.00;49.10
74617;DHT22;63123;50.906;4.198;2023-04-15T12:31:54;17.00;49.60
74617;DHT22;63123;50.906;4.198;2023-04-15T12:34:49;17.00;49.60
74617;DHT22;63123;50.906;4.198;2023-04-15T12:37:15;16.90;49.10
74617;DHT22;63123;50.906;4.198;2023-04-15T12:39:42;16.90;48.90
74617;DHT22;63123;50.906;4.198;2023-04-15T12:42:09;17.00;48.90
74617;DHT22;63123;50.906;4.198;2023-04-15T12:44:35;17.00;49.00
74617;DHT22;63123;50.906;4.198;2023-04-15T12:47:01;16.90;48.90
74617;DHT22;63123;50.906;4.198;2023-04-15T12:49:27;16.90;48.90
74617;DHT22;63123;50.906;4.198;2023-04-15T12:51:55;17.00;48.50
74617;DHT22;63123;50.906;4.198;2023-04-15T12:54:20;16.90;48.50
74617;DHT22;63123;50.906;4.198;2023-04-15T12:56:47;16.90;48.50
74617;DHT22;63123;50.906;4.198;2023-04-15T12:59:15;17.00;48.40
74617;DHT22;63123;50.906;4.198;2023-04-15T13:01:42;16.90;48.20
74617;DHT22;63123;50.906;4.198;2023-04-15T13:04:07;16.90;48.70
74617;DHT22;63123;50.906;4.198;2023-04-15T13:06:33;16.90;48.60
74617;DHT22;63123;50.906;4.198;2023-04-15T13:08:59;16.90;48.60
74617;DHT22;63123;50.906;4.198;2023-04-15T13:11:26;17.00;48.40
74617;DHT22;63123;50.906;4.198;2023-04-15T13:13:51;17.00;48.80
74617;DHT22;63123;50.906;4.198;2023-04-15T13:16:17;16.90;48.20
74617;DHT22;63123;50.906;4.198;2023-04-15T13:18:43;16.90;48.70
74617;DHT22;63123;50.906;4.198;2023-04-15T13:21:11;17.00;48.70
74617;DHT22;63123;50.906;4.198;2023-04-15T13:23:37;16.90;48.60
74617;DHT22;63123;50.906;4.198;2023-04-15T13:26:03;17.00;48.80
74617;DHT22;63123;50.906;4.198;2023-04-15T13:28:28;17.00;48.50
74617;DHT22;63123;50.906;4.198;2023-04-15T13:30:54;17.00;48.40
74617;DHT22;63123;50.906;4.198;2023-04-15T13:33:20;16.90;48.60
74617;DHT22;63123;50.906;4.198;2023-04-15T13:35:46;17.00;49.20
74617;DHT22;63123;50.906;4.198;2023-04-15T13:38:11;17.00;48.60
74617;DHT22;63123;50.906;4.198;2023-04-15T13:40:37;17.00;48.50
74617;DHT22;63123;50.906;4.198;2023-04-15T13:43:02;16.90;48.40
74617;DHT22;63123;50.906;4.198;2023-04-15T13:45:29;16.90;48.50
74617;DHT22;63123;50.906;4.198;2023-04-15T13:47:55;17.00;48.90
74617;DHT22;63123;50.906;4.198;2023-04-15T13:50:21;17.00;48.60
74617;DHT22;63123;50.906;4.198;2023-04-15T13:52:47;17.00;48.40
74617;DHT22;63123;50.906;4.198;2023-04-15T13:55:13;17.00;48.70
74617;DHT22;63123;50.906;4.198;2023-04-15T13:57:38;17.00;48.60
74617;DHT22;63123;50.906;4.198;2023-04-15T14:00:04;17.00;48.70
74617;DHT22;63123;50.906;4.198;2023-04-15T14:02:30;17.00;48.90
74617;DHT22;63123;50.906;4.198;2023-04-15T14:04:56;17.00;48.60
74617;DHT22;63123;50.906;4.198;2023-04-15T14:07:22;17.00;48.40
74617;DHT22;63123;50.906;4.198;2023-04-15T14:09:47;17.00;48.40
74617;DHT22;63123;50.906;4.198;2023-04-15T14:12:13;17.00;48.90
74617;DHT22;63123;50.906;4.198;2023-04-15T14:14:39;17.00;48.50
74617;DHT22;63123;50.906;4.198;2023-04-15T14:17:05;17.00;48.70
74617;DHT22;63123;50.906;4.198;2023-04-15T14:19:31;16.90;48.60
74617;DHT22;63123;50.906;4.198;2023-04-15T14:21:56;17.00;48.50
74617;DHT22;63123;50.906;4.198;2023-04-15T14:24:22;17.00;48.60
74617;DHT22;63123;50.906;4.198;2023-04-15T14:26:48;17.00;48.10
74617;DHT22;63123;50.906;4.198;2023-04-15T14:29:13;17.00;48.40
74617;DHT22;63123;50.906;4.198;2023-04-15T14:31:39;17.00;48.20
74617;DHT22;63123;50.906;4.198;2023-04-15T14:34:05;17.00;48.60
74617;DHT22;63123;50.906;4.198;2023-04-15T14:36:30;16.90;48.30
74617;DHT22;63123;50.906;4.198;2023-04-15T14:38:56;17.00;48.20
74617;DHT22;63123;50.906;4.198;2023-04-15T14:41:22;17.00;48.70
74617;DHT22;63123;50.906;4.198;2023-04-15T14:43:48;17.00;48.00
74617;DHT22;63123;50.906;4.198;2023-04-15T14:46:13;17.00;48.30
74617;DHT22;63123;50.906;4.198;2023-04-15T14:48:39;17.00;48.70
74617;DHT22;63123;50.906;4.198;2023-04-15T14:51:05;17.00;48.60
74617;DHT22;63123;50.906;4.198;2023-04-15T14:53:31;16.90;48.50
74617;DHT22;63123;50.906;4.198;2023-04-15T14:55:56;17.00;48.40
74617;DHT22;63123;50.906;4.198;2023-04-15T14:58:22;17.00;48.80
74617;DHT22;63123;50.906;4.198;2023-04-15T15:00:48;17.00;48.60
74617;DHT22;63123;50.906;4.198;2023-04-15T15:03:13;16.90;48.50
74617;DHT22;63123;50.906;4.198;2023-04-15T15:05:40;17.00;48.90
74617;DHT22;63123;50.906;4.198;2023-04-15T15:08:07;17.00;49.00
74617;DHT22;63123;50.906;4.198;2023-04-15T15:10:34;17.00;49.10
74617;DHT22;63123;50.906;4.198;2023-04-15T15:13:01;17.00;49.20
74617;DHT22;63123;50.906;4.198;2023-04-15T15:15:26;17.00;49.40
74617;DHT22;63123;50.906;4.198;2023-04-15T15:17:52;17.00;49.50
74617;DHT22;63123;50.906;4.198;2023-04-15T15:20:18;17.00;49.70
74617;DHT22;63123;50.906;4.198;2023-04-15T15:22:44;16.90;49.50
74617;DHT22;63123;50.906;4.198;2023-04-15T15:25:10;17.00;49.60
74617;DHT22;63123;50.906;4.198;2023-04-15T15:27:35;17.00;49.60
74617;DHT22;63123;50.906;4.198;2023-04-15T15:30:02;17.00;49.70
74617;DHT22;63123;50.906;4.198;2023-04-15T15:32:27;17.00;49.70
74617;DHT22;63123;50.906;4.198;2023-04-15T15:34:53;17.00;49.80
74617;DHT22;63123;50.906;4.198;2023-04-15T15:37:19;17.00;49.90
74617;DHT22;63123;50.906;4.198;2023-04-15T15:39:45;17.00;49.90